createdAt,value
2022-11-28T00:01:43.195Z,6.83
2022-11-28T00:04:11.898Z,6.88
2022-11-28T00:06:45.365Z,6.92
2022-11-28T00:09:14.710Z,6.66
2022-11-28T00:11:44.374Z,6.71
2022-11-28T00:14:12.464Z,6.61
2022-11-28T00:16:40.378Z,6.47
2022-11-28T00:19:08.915Z,6.64
2022-11-28T00:21:36.533Z,6.71
2022-11-28T00:24:05.024Z,6.92
2022-11-28T00:26:39.425Z,6.76
2022-11-28T00:29:08.616Z,6.84
2022-11-28T00:31:43.964Z,6.77
2022-11-28T00:34:13.893Z,6.69
2022-11-28T00:36:43.759Z,6.63
2022-11-28T00:39:11.525Z,6.90
2022-11-28T00:41:39.539Z,6.86
2022-11-28T00:44:07.462Z,6.87
2022-11-28T00:46:35.089Z,7.02
2022-11-28T00:49:04.095Z,6.97
2022-11-28T00:51:33.491Z,6.94
2022-11-28T00:54:03.591Z,7.28
2022-11-28T00:56:34.981Z,7.22
2022-11-28T00:59:02.871Z,7.24
2022-11-28T01:01:33.328Z,7.30
2022-11-28T01:04:05.428Z,6.70
2022-11-28T01:06:39.119Z,6.89
2022-11-28T01:09:10.641Z,6.87
2022-11-28T01:11:40.145Z,6.67
2022-11-28T01:14:09.269Z,6.66
2022-11-28T01:16:37.266Z,6.79
2022-11-28T01:19:05.891Z,6.71
2022-11-28T01:21:34.280Z,6.94
2022-11-28T01:24:02.909Z,7.18
2022-11-28T01:26:31.204Z,7.02
2022-11-28T01:29:00.719Z,6.91
2022-11-28T01:31:29.683Z,7.00
2022-11-28T01:33:58.253Z,7.06
2022-11-28T01:36:26.508Z,6.97
2022-11-28T01:38:54.250Z,6.96
2022-11-28T01:41:24.999Z,6.86
2022-11-28T01:44:05.772Z,6.63
2022-11-28T01:46:34.596Z,6.63
2022-11-28T01:49:28.952Z,6.55
2022-11-28T01:52:03.095Z,6.60
2022-11-28T01:54:33.083Z,6.50
2022-11-28T01:57:08.069Z,6.48
2022-11-28T01:59:40.687Z,6.38
2022-11-28T02:02:15.670Z,6.39
2022-11-28T02:04:44.662Z,6.21
2022-11-28T02:07:12.982Z,6.47
2022-11-28T02:09:42.155Z,6.42
2022-11-28T02:12:30.730Z,6.42
2022-11-28T02:15:17.090Z,6.45
2022-11-28T02:18:09.786Z,6.37
2022-11-28T02:21:02.946Z,6.37
2022-11-28T02:24:06.292Z,6.11
2022-11-28T02:26:33.733Z,6.15
2022-11-28T02:29:32.781Z,6.37
2022-11-28T02:32:22.074Z,6.57
2022-11-28T02:35:03.395Z,6.56
2022-11-28T02:37:44.280Z,6.58
2022-11-28T02:40:12.450Z,6.75
2022-11-28T02:42:50.291Z,6.75
2022-11-28T02:45:32.094Z,6.65
2022-11-28T02:48:04.499Z,6.73
2022-11-28T02:50:43.406Z,6.87
2022-11-28T02:53:16.910Z,7.03
2022-11-28T02:55:45.062Z,7.11
2022-11-28T02:58:13.159Z,7.05
2022-11-28T03:00:46.281Z,7.01
2022-11-28T03:03:33.190Z,6.98
2022-11-28T03:06:32.536Z,6.79
2022-11-28T03:09:27.911Z,6.80
2022-11-28T03:12:33.169Z,6.47
2022-11-28T03:15:07.996Z,6.18
2022-11-28T03:18:03.519Z,6.42
2022-11-28T03:20:55.040Z,6.64
2022-11-28T03:23:42.798Z,6.84
2022-11-28T03:26:18.615Z,6.86
2022-11-28T03:28:57.801Z,6.80
2022-11-28T03:31:41.655Z,6.76
2022-11-28T03:34:14.311Z,6.73
2022-11-28T03:36:48.973Z,6.50
2022-11-28T03:39:22.427Z,6.63
2022-11-28T03:42:03.355Z,6.95
2022-11-28T03:44:38.401Z,6.72
2022-11-28T03:47:07.211Z,6.70
2022-11-28T03:49:41.792Z,6.71
2022-11-28T03:52:20.985Z,6.89
2022-11-28T03:55:03.853Z,6.84
2022-11-28T03:57:59.845Z,6.88
2022-11-28T04:00:27.707Z,6.84
2022-11-28T04:03:07.934Z,6.81
2022-11-28T04:05:35.572Z,6.80
2022-11-28T04:08:09.372Z,6.76
2022-11-28T04:10:43.092Z,6.71
2022-11-28T04:13:22.900Z,6.51
2022-11-28T04:16:05.193Z,6.61
2022-11-28T04:18:51.214Z,6.56
2022-11-28T04:21:36.986Z,6.56
2022-11-28T04:24:12.429Z,6.34
2022-11-28T04:26:45.294Z,6.34
2022-11-28T04:29:18.288Z,6.39
2022-11-28T04:31:48.935Z,6.33
2022-11-28T04:34:20.450Z,6.27
2022-11-28T04:36:49.880Z,6.37
2022-11-28T04:39:26.434Z,6.18
2022-11-28T04:42:00.299Z,6.27
2022-11-28T04:44:33.281Z,6.25
2022-11-28T04:47:00.976Z,6.30
2022-11-28T04:49:30.465Z,6.22
2022-11-28T04:52:07.170Z,6.07
2022-11-28T04:55:02.883Z,6.05
2022-11-28T04:57:35.097Z,5.97
2022-11-28T05:00:17.130Z,5.92
2022-11-28T05:02:47.103Z,5.74
2022-11-28T05:05:24.486Z,5.89
2022-11-28T05:07:53.252Z,5.78
2022-11-28T05:10:21.876Z,5.56
2022-11-28T05:12:49.381Z,5.70
2022-11-28T05:15:19.258Z,5.62
2022-11-28T05:17:47.464Z,5.55
2022-11-28T05:20:15.224Z,5.50
2022-11-28T05:22:42.988Z,5.60
2022-11-28T05:25:10.887Z,5.53
2022-11-28T05:27:38.462Z,5.56
2022-11-28T05:30:07.413Z,5.67
2022-11-28T05:32:36.498Z,5.60
2022-11-28T05:35:05.031Z,5.46
2022-11-28T05:37:32.890Z,5.39
2022-11-28T05:40:00.983Z,5.50
2022-11-28T05:42:32.501Z,5.55
2022-11-28T05:45:00.086Z,5.61
2022-11-28T05:47:31.270Z,5.54
2022-11-28T05:50:00.797Z,5.46
2022-11-28T05:52:29.871Z,5.43
2022-11-28T05:54:57.421Z,5.49
2022-11-28T05:57:24.940Z,5.48
2022-11-28T05:59:56.380Z,5.26
2022-11-28T06:02:24.057Z,5.29
2022-11-28T06:04:52.044Z,5.05
2022-11-28T06:07:19.995Z,5.20
2022-11-28T06:09:47.621Z,5.34
2022-11-28T06:12:15.470Z,5.36
2022-11-28T06:14:43.022Z,5.27
2022-11-28T06:17:10.617Z,5.53
2022-11-28T06:19:39.214Z,5.31
2022-11-28T06:22:06.808Z,5.22
2022-11-28T06:24:34.325Z,5.31
2022-11-28T06:27:02.200Z,4.71
2022-11-28T06:29:29.733Z,5.03
2022-11-28T06:31:57.380Z,5.26
2022-11-28T06:34:25.459Z,5.22
2022-11-28T06:36:53.324Z,5.19
2022-11-28T06:39:20.895Z,5.10
2022-11-28T06:41:49.482Z,5.07
2022-11-28T06:44:17.753Z,5.22
2022-11-28T06:46:45.297Z,5.10
2022-11-28T06:49:13.772Z,4.83
2022-11-28T06:51:42.851Z,5.14
2022-11-28T06:54:10.526Z,5.07
2022-11-28T06:56:40.232Z,5.10
2022-11-28T06:59:08.166Z,5.23
2022-11-28T07:01:35.780Z,5.28
2022-11-28T07:04:03.744Z,5.17
2022-11-28T07:06:31.445Z,5.16
2022-11-28T07:08:59.400Z,5.08
2022-11-28T07:11:30.198Z,5.17
2022-11-28T07:14:00.737Z,5.18
2022-11-28T07:16:33.161Z,5.25
2022-11-28T07:19:01.310Z,5.29
2022-11-28T07:21:29.802Z,5.25
2022-11-28T07:23:59.305Z,4.94
2022-11-28T07:26:27.052Z,5.19
2022-11-28T07:28:57.924Z,5.39
2022-11-28T07:31:28.039Z,5.20
2022-11-28T07:33:55.939Z,5.13
2022-11-28T07:36:26.915Z,5.20
2022-11-28T07:38:57.465Z,5.29
2022-11-28T07:41:27.344Z,4.88
2022-11-28T07:44:00.803Z,4.71
2022-11-28T07:46:30.306Z,5.24
2022-11-28T07:48:57.961Z,5.09
2022-11-28T07:51:28.745Z,5.45
2022-11-28T07:53:56.834Z,5.64
2022-11-28T07:56:56.733Z,5.72
2022-11-28T07:59:18.378Z,5.50
2022-11-28T08:01:45.999Z,5.79
2022-11-28T08:04:13.983Z,5.73
2022-11-28T08:06:43.457Z,5.45
2022-11-28T08:09:14.649Z,5.43
2022-11-28T08:11:43.046Z,5.18
2022-11-28T08:14:11.013Z,5.49
2022-11-28T08:16:41.434Z,5.65
2022-11-28T08:19:09.392Z,5.91
2022-11-28T08:21:37.641Z,6.04
2022-11-28T08:24:06.253Z,6.02
2022-11-28T08:26:34.920Z,6.11
2022-11-28T08:29:03.889Z,6.02
2022-11-28T08:31:35.199Z,6.11
2022-11-28T08:34:06.550Z,5.51
2022-11-28T08:36:34.203Z,5.94
2022-11-28T08:39:22.801Z,6.06
2022-11-28T08:41:50.925Z,6.34
2022-11-28T08:44:18.689Z,6.37
2022-11-28T08:46:46.275Z,6.38
2022-11-28T08:49:14.210Z,6.55
2022-11-28T08:51:41.947Z,6.55
2022-11-28T08:54:09.803Z,6.59
2022-11-28T08:56:37.666Z,6.54
2022-11-28T08:59:05.222Z,6.40
2022-11-28T09:01:33.056Z,6.16
2022-11-28T09:04:01.181Z,6.47
2022-11-28T09:06:28.884Z,5.67
2022-11-28T09:08:56.495Z,6.29
2022-11-28T09:11:24.716Z,6.67
2022-11-28T09:13:52.374Z,6.82
2022-11-28T09:16:19.989Z,6.72
2022-11-28T09:18:48.172Z,6.95
2022-11-28T09:21:16.059Z,6.96
2022-11-28T09:23:45.114Z,6.67
2022-11-28T09:26:16.894Z,6.90
2022-11-28T09:28:44.723Z,7.01
2022-11-28T09:31:13.895Z,6.83
2022-11-28T09:33:42.637Z,7.07
2022-11-28T09:36:15.776Z,7.07
2022-11-28T09:38:43.799Z,6.97
2022-11-28T09:41:24.197Z,7.06
2022-11-28T09:43:55.243Z,7.05
2022-11-28T09:46:34.473Z,7.05
2022-11-28T09:49:11.136Z,6.80
2022-11-28T09:52:00.485Z,6.92
2022-11-28T09:54:45.422Z,6.83
2022-11-28T09:57:25.679Z,6.78
2022-11-28T10:00:22.814Z,6.76
2022-11-28T10:03:22.122Z,6.89
2022-11-28T10:06:03.441Z,6.29
2022-11-28T10:09:00.978Z,6.88
2022-11-28T10:11:37.539Z,6.63
2022-11-28T10:14:23.314Z,6.71
2022-11-28T10:17:02.948Z,7.09
2022-11-28T10:19:58.708Z,7.09
2022-11-28T10:22:35.837Z,7.32
2022-11-28T10:25:12.583Z,7.82
2022-11-28T10:27:41.215Z,8.22
2022-11-28T10:30:23.234Z,8.30
2022-11-28T10:33:12.234Z,8.03
2022-11-28T10:35:48.621Z,7.48
2022-11-28T10:38:17.603Z,7.63
2022-11-28T10:41:12.597Z,7.98
2022-11-28T10:43:44.200Z,7.66
2022-11-28T10:46:42.835Z,7.76
2022-11-28T10:49:16.521Z,7.91
2022-11-28T10:51:57.448Z,7.98
2022-11-28T10:54:43.054Z,7.84
2022-11-28T10:58:09.317Z,7.18
2022-11-28T11:00:38.215Z,7.67
2022-11-28T11:03:13.278Z,7.43
2022-11-28T11:05:41.369Z,6.77
2022-11-28T11:08:29.333Z,6.97
2022-11-28T11:11:02.982Z,6.75
2022-11-28T11:13:33.227Z,7.27
2022-11-28T11:16:07.618Z,7.16
2022-11-28T11:18:37.027Z,7.10
2022-11-28T11:21:07.235Z,7.04
2022-11-28T11:23:38.470Z,6.90
2022-11-28T11:26:10.337Z,6.35
2022-11-28T11:28:42.749Z,6.90
2022-11-28T11:31:19.208Z,6.37
2022-11-28T11:33:48.866Z,6.47
2022-11-28T11:36:24.964Z,6.86
2022-11-28T11:39:16.974Z,6.53
2022-11-28T11:42:10.633Z,6.72
2022-11-28T11:44:38.583Z,6.44
2022-11-28T11:47:08.712Z,6.05
2022-11-28T11:49:37.795Z,6.63
2022-11-28T11:52:07.055Z,6.99
2022-11-28T11:54:34.677Z,7.00
2022-11-28T11:57:32.397Z,6.90
2022-11-28T12:00:07.078Z,6.88
2022-11-28T12:02:46.155Z,6.86
2022-11-28T12:05:16.579Z,6.87
2022-11-28T12:08:15.325Z,6.72
2022-11-28T12:10:50.539Z,6.96
2022-11-28T12:13:21.447Z,7.32
2022-11-28T12:16:30.910Z,7.18
2022-11-28T12:19:22.617Z,6.95
2022-11-28T12:22:06.785Z,6.51
2022-11-28T12:24:54.559Z,6.96
2022-11-28T12:27:52.487Z,6.57
2022-11-28T12:30:29.592Z,7.06
2022-11-28T12:33:12.003Z,6.73
2022-11-28T12:35:43.434Z,6.86
2022-11-28T12:38:31.299Z,6.85
2022-11-28T12:41:37.177Z,7.39
2022-11-28T12:44:54.333Z,7.61
2022-11-28T12:47:43.163Z,7.72
2022-11-28T12:50:20.211Z,7.47
2022-11-28T12:53:06.230Z,7.71
2022-11-28T12:56:20.592Z,7.86
2022-11-28T12:59:26.165Z,7.62
2022-11-28T13:02:18.971Z,7.66
2022-11-28T13:05:03.428Z,7.74
2022-11-28T13:07:43.074Z,7.20
2022-11-28T13:10:39.132Z,7.18
2022-11-28T13:13:20.793Z,7.66
2022-11-28T13:19:03.381Z,6.87
2022-11-28T13:21:45.072Z,6.22
2022-11-28T13:24:27.934Z,7.33
2022-11-28T13:27:24.628Z,7.12
2022-11-28T13:30:13.431Z,7.22
2022-11-28T13:32:57.747Z,7.16
2022-11-28T13:35:28.763Z,7.34
2022-11-28T13:41:28.799Z,7.43
2022-11-28T13:44:07.795Z,7.03
2022-11-28T13:46:35.901Z,7.24
2022-11-28T13:49:21.561Z,7.53
2022-11-28T13:52:18.084Z,7.22
2022-11-28T13:54:53.820Z,6.93
2022-11-28T13:57:21.851Z,7.24
2022-11-28T13:59:54.833Z,7.36
2022-11-28T14:02:41.933Z,7.61
2022-11-28T14:05:28.394Z,7.32
2022-11-28T14:07:57.331Z,7.28
2022-11-28T14:10:48.360Z,7.23
2022-11-28T14:13:26.628Z,7.12
2022-11-28T14:16:12.758Z,7.02
2022-11-28T14:19:09.620Z,7.03
2022-11-28T14:22:02.062Z,6.83
2022-11-28T14:24:51.414Z,7.30
2022-11-28T14:27:36.408Z,7.24
2022-11-28T14:30:07.625Z,7.44
2022-11-28T14:32:39.062Z,7.58
2022-11-28T14:35:16.228Z,7.28
2022-11-28T14:37:53.089Z,7.34
2022-11-28T14:40:58.501Z,6.99
2022-11-28T14:43:35.391Z,7.25
2022-11-28T14:46:26.731Z,7.14
2022-11-28T14:48:58.046Z,7.54
2022-11-28T14:51:44.307Z,6.68
2022-11-28T14:54:22.212Z,6.70
2022-11-28T14:56:58.326Z,7.10
2022-11-28T14:59:34.489Z,7.26
2022-11-28T15:02:10.947Z,7.20
2022-11-28T15:05:00.650Z,7.07
2022-11-28T15:07:47.182Z,7.42
2022-11-28T15:10:26.334Z,7.51
2022-11-28T15:13:27.063Z,7.31
2022-11-28T15:15:58.092Z,7.37
2022-11-28T15:18:26.857Z,7.36
2022-11-28T15:21:04.423Z,7.30
2022-11-28T15:23:38.548Z,7.52
2022-11-28T15:26:06.932Z,7.29
2022-11-28T15:28:36.142Z,7.64
2022-11-28T15:31:05.858Z,7.66
2022-11-28T15:33:34.243Z,7.74
2022-11-28T15:36:17.034Z,7.48
2022-11-28T15:38:44.733Z,7.25
2022-11-28T15:41:12.883Z,7.37
2022-11-28T15:43:45.567Z,7.44
2022-11-28T15:46:20.443Z,7.59
2022-11-28T15:48:52.868Z,7.42
2022-11-28T15:51:24.521Z,7.22
2022-11-28T15:53:52.321Z,7.46
2022-11-28T15:56:20.302Z,7.54
2022-11-28T15:58:48.997Z,7.54
2022-11-28T16:01:19.875Z,7.60
2022-11-28T16:03:53.733Z,7.37
2022-11-28T16:06:23.281Z,7.56
2022-11-28T16:09:04.109Z,7.63
2022-11-28T16:11:33.061Z,7.55
2022-11-28T16:14:09.254Z,7.42
2022-11-28T16:16:39.111Z,7.36
2022-11-28T16:19:20.868Z,7.43
2022-11-28T16:21:53.192Z,7.55
2022-11-28T16:24:35.460Z,7.71
2022-11-28T16:27:06.188Z,7.46
2022-11-28T16:29:36.162Z,7.33
2022-11-28T16:32:08.394Z,7.44
2022-11-28T16:34:50.636Z,7.42
2022-11-28T16:37:25.647Z,7.51
2022-11-28T16:40:14.929Z,7.30
2022-11-28T16:42:43.118Z,7.58
2022-11-28T16:45:22.080Z,7.55
2022-11-28T16:48:07.305Z,7.65
2022-11-28T16:50:36.927Z,7.71
2022-11-28T16:53:05.513Z,7.65
2022-11-28T16:55:33.790Z,7.69
2022-11-28T16:58:10.401Z,7.81
2022-11-28T17:00:40.853Z,7.88
2022-11-28T17:03:41.428Z,7.82
2022-11-28T17:06:34.345Z,7.62
2022-11-28T17:09:07.880Z,7.77
2022-11-28T17:11:38.724Z,7.74
2022-11-28T17:14:13.294Z,7.82
2022-11-28T17:16:42.776Z,7.59
2022-11-28T17:19:11.376Z,7.73
2022-11-28T17:22:05.005Z,7.71
2022-11-28T17:24:36.464Z,7.72
2022-11-28T17:27:07.614Z,7.76
2022-11-28T17:29:36.031Z,7.72
2022-11-28T17:32:04.045Z,7.62
2022-11-28T17:34:34.495Z,7.65
2022-11-28T17:37:03.095Z,7.46
2022-11-28T17:39:31.297Z,7.59
2022-11-28T17:41:59.220Z,7.49
2022-11-28T17:44:37.624Z,7.53
2022-11-28T17:47:06.410Z,7.43
2022-11-28T17:49:35.096Z,7.47
2022-11-28T17:52:04.303Z,7.60
2022-11-28T17:54:32.612Z,7.36
2022-11-28T17:57:01.668Z,7.46
2022-11-28T17:59:29.361Z,7.48
2022-11-28T18:01:57.566Z,7.56
2022-11-28T18:04:26.271Z,7.49
2022-11-28T18:06:54.856Z,7.49
2022-11-28T18:09:22.814Z,7.38
2022-11-28T18:11:51.732Z,7.52
2022-11-28T18:14:20.046Z,7.51
2022-11-28T18:16:48.172Z,7.44
2022-11-28T18:19:19.594Z,7.51
2022-11-28T18:21:48.108Z,7.35
2022-11-28T18:24:16.178Z,7.59
2022-11-28T18:26:44.030Z,7.38
2022-11-28T18:29:12.055Z,7.05
2022-11-28T18:31:40.341Z,7.26
2022-11-28T18:34:09.566Z,7.35
2022-11-28T18:36:39.070Z,7.45
2022-11-28T18:39:11.391Z,7.41
2022-11-28T18:41:42.871Z,7.40
2022-11-28T18:44:11.334Z,7.47
2022-11-28T18:46:39.794Z,7.33
2022-11-28T18:49:08.374Z,7.42
2022-11-28T18:51:36.963Z,7.30
2022-11-28T18:54:05.667Z,7.24
2022-11-28T18:56:34.070Z,7.26
2022-11-28T18:59:02.354Z,7.16
2022-11-28T19:01:33.051Z,7.29
2022-11-28T19:04:10.208Z,7.11
2022-11-28T19:06:44.000Z,7.31
2022-11-28T19:09:15.866Z,7.20
2022-11-28T19:11:45.242Z,7.27
2022-11-28T19:14:18.433Z,7.22
2022-11-28T19:16:50.314Z,7.21
2022-11-28T19:19:18.553Z,7.16
2022-11-28T19:21:47.025Z,7.18
2022-11-28T19:24:14.894Z,7.01
2022-11-28T19:26:42.916Z,7.05
2022-11-28T19:29:11.461Z,7.23
2022-11-28T19:31:41.275Z,7.23
2022-11-28T19:34:15.827Z,7.12
2022-11-28T19:36:47.461Z,7.24
2022-11-28T19:39:18.316Z,7.26
2022-11-28T19:41:46.812Z,7.21
2022-11-28T19:44:18.006Z,7.16
2022-11-28T19:46:47.945Z,7.27
2022-11-28T19:49:19.485Z,7.20
2022-11-28T19:51:49.581Z,6.99
2022-11-28T19:54:20.520Z,7.10
2022-11-28T19:56:49.358Z,7.09
2022-11-28T19:59:18.435Z,7.12
2022-11-28T20:01:49.846Z,7.13
2022-11-28T20:04:19.361Z,7.03
2022-11-28T20:06:47.451Z,6.83
2022-11-28T20:09:15.824Z,6.95
2022-11-28T20:11:45.701Z,6.76
2022-11-28T20:14:17.521Z,6.79
2022-11-28T20:16:46.090Z,6.23
2022-11-28T20:19:23.160Z,6.75
2022-11-28T20:21:51.082Z,6.38
2022-11-28T20:24:20.871Z,6.50
2022-11-28T20:26:50.577Z,6.58
2022-11-28T20:29:20.859Z,6.49
2022-11-28T20:31:50.429Z,6.11
2022-11-28T20:34:19.012Z,6.22
2022-11-28T20:36:52.121Z,6.11
2022-11-28T20:39:20.809Z,6.13
2022-11-28T20:41:48.724Z,6.41
2022-11-28T20:44:18.805Z,6.15
2022-11-28T20:46:47.212Z,6.21
2022-11-28T20:49:16.311Z,6.15
2022-11-28T20:51:44.277Z,6.12
2022-11-28T20:54:13.523Z,6.35
2022-11-28T20:57:12.764Z,6.33
2022-11-28T20:59:31.499Z,6.48
2022-11-28T21:01:59.111Z,6.11
2022-11-28T21:04:27.029Z,6.06
2022-11-28T21:06:54.916Z,6.32
2022-11-28T21:09:22.980Z,6.07
2022-11-28T21:11:58.414Z,6.10
2022-11-28T21:14:28.844Z,5.98
2022-11-28T21:16:57.992Z,6.00
2022-11-28T21:19:26.915Z,5.64
2022-11-28T21:21:54.749Z,5.76
2022-11-28T21:24:22.405Z,6.12
2022-11-28T21:26:53.830Z,5.38
2022-11-28T21:29:23.595Z,5.93
2022-11-28T21:31:51.738Z,5.96
2022-11-28T21:34:19.709Z,6.06
2022-11-28T21:36:47.958Z,5.84
2022-11-28T21:39:18.928Z,6.06
2022-11-28T21:41:46.858Z,6.13
2022-11-28T21:44:14.434Z,5.54
2022-11-28T21:46:42.241Z,5.84
2022-11-28T21:49:10.108Z,5.62
2022-11-28T21:51:38.268Z,5.80
2022-11-28T21:54:06.628Z,5.97
2022-11-28T21:56:35.709Z,5.85
2022-11-28T21:59:05.910Z,5.88
2022-11-28T22:01:34.188Z,6.03
2022-11-28T22:04:03.118Z,6.02
2022-11-28T22:06:32.225Z,6.21
2022-11-28T22:09:08.686Z,6.04
2022-11-28T22:11:39.112Z,5.92
2022-11-28T22:14:06.778Z,5.77
2022-11-28T22:16:34.520Z,6.04
2022-11-28T22:19:04.103Z,6.09
2022-11-28T22:24:20.405Z,5.67
2022-11-28T22:26:49.142Z,5.62
2022-11-28T22:29:16.794Z,5.98
2022-11-28T22:31:44.685Z,5.48
2022-11-28T22:34:12.251Z,5.28
2022-11-28T22:36:39.857Z,5.59
2022-11-28T22:39:10.507Z,5.72
2022-11-28T22:41:38.616Z,5.97
2022-11-28T22:44:06.376Z,5.60
2022-11-28T22:46:34.357Z,5.43
2022-11-28T22:49:02.882Z,5.31
2022-11-28T22:51:31.678Z,5.51
2022-11-28T22:54:01.631Z,5.46
2022-11-28T22:56:32.036Z,5.22
2022-11-28T22:59:00.896Z,5.23
2022-11-28T23:01:30.712Z,4.96
2022-11-28T23:03:59.306Z,5.41
2022-11-28T23:06:30.339Z,5.12
2022-11-28T23:08:59.962Z,5.12
2022-11-28T23:11:32.780Z,5.24
2022-11-28T23:14:01.633Z,5.55
2022-11-28T23:16:32.671Z,5.40
2022-11-28T23:19:03.822Z,5.18
2022-11-28T23:21:35.876Z,5.38
2022-11-28T23:24:04.628Z,5.38
2022-11-28T23:26:34.575Z,5.48
2022-11-28T23:29:04.765Z,5.02
2022-11-28T23:31:37.141Z,5.40
2022-11-28T23:34:06.092Z,5.51
2022-11-28T23:36:42.541Z,5.77
2022-11-28T23:39:19.647Z,5.67
2022-11-28T23:41:48.228Z,5.69
2022-11-28T23:44:17.916Z,5.29
2022-11-28T23:46:46.320Z,5.37
2022-11-28T23:49:14.476Z,5.44
2022-11-28T23:51:42.366Z,5.65
2022-11-28T23:54:11.884Z,5.15
2022-11-28T23:56:41.723Z,5.38
2022-11-28T23:59:11.561Z,5.71
